Time;durP1;ratioP1;P1;durP2;ratioP2;P2;SDS_P1;SDS_P2;PMS_P1;PMS_P2;Temp;Humidity;BMP_temperature;BMP_pressure;BME280_temperature;BME280_humidity;BME280_pressure;Samples;Min_cycle;Max_cycle;Signal;HPM_P1;HPM_P2
2022/07/24 05:33:51;;;;;;;28.00;26.30;;;23.30;99.90;;;;;;5028691;23;20576;-69
2022/07/24 05:36:18;;;;;;;28.03;26.23;;;23.30;99.90;;;;;;4989034;28;20454;-70
2022/07/24 05:38:45;;;;;;;26.70;25.10;;;23.40;99.90;;;;;;4999971;28;20927;-70
2022/07/24 05:41:12;;;;;;;26.13;24.23;;;23.70;99.90;;;;;;5013250;28;20449;-70
2022/07/24 05:43:39;;;;;;;26.47;24.77;;;23.90;99.90;;;;;;5012911;28;20817;-69
2022/07/24 05:46:06;;;;;;;25.97;24.37;;;24.20;99.90;;;;;;5012938;28;20446;-69
2022/07/24 05:48:33;;;;;;;26.83;25.10;;;24.20;99.90;;;;;;4995822;28;20458;-70
2022/07/24 05:51:01;;;;;;;25.57;23.90;;;24.40;99.90;;;;;;4993026;28;20466;-70
2022/07/24 05:53:28;;;;;;;25.00;23.50;;;24.50;99.90;;;;;;4993147;28;20949;-71
2022/07/24 05:55:55;;;;;;;26.70;25.10;;;24.70;99.90;;;;;;4992886;28;20968;-71
2022/07/24 05:58:21;;;;;;;24.23;22.77;;;24.80;99.90;;;;;;4993425;28;20455;-71
2022/07/24 06:00:48;;;;;;;25.77;24.17;;;25.10;99.90;;;;;;4993267;28;20458;-70
2022/07/24 06:03:15;;;;;;;23.87;22.53;;;25.30;99.90;;;;;;4993020;28;20466;-71
2022/07/24 06:05:42;;;;;;;25.97;24.47;;;25.70;99.90;;;;;;5010642;28;20634;-71
2022/07/24 06:08:10;;;;;;;24.33;22.93;;;26.00;99.90;;;;;;5012838;28;20458;-71
2022/07/24 06:10:36;;;;;;;24.63;23.13;;;25.90;99.90;;;;;;5012692;28;20450;-71
2022/07/24 06:13:03;;;;;;;24.97;23.57;;;26.20;99.90;;;;;;5012451;28;20496;-71
2022/07/24 06:15:30;;;;;;;25.03;23.53;;;26.10;99.90;;;;;;5012497;28;20449;-71
2022/07/24 06:17:56;;;;;;;24.63;23.13;;;25.90;99.90;;;;;;5012403;28;20454;-72
2022/07/24 06:20:23;;;;;;;25.13;23.77;;;25.70;99.90;;;;;;5012363;28;20450;-71
2022/07/24 06:22:50;;;;;;;24.93;23.43;;;25.80;99.90;;;;;;5012114;28;20450;-71
2022/07/24 06:25:19;;;;;;;24.03;22.50;;;26.20;99.90;;;;;;5012028;28;20873;-70
2022/07/24 06:27:48;;;;;;;24.63;23.13;;;26.70;99.90;;;;;;5012153;28;20513;-71
2022/07/24 06:30:15;;;;;;;24.93;23.43;;;26.80;99.90;;;;;;5011831;28;20446;-70
2022/07/24 06:32:43;;;;;;;25.53;23.83;;;27.30;99.90;;;;;;5011545;28;20501;-71
2022/07/24 06:35:10;;;;;;;23.83;22.37;;;27.10;99.90;;;;;;5011958;28;20461;-71
2022/07/24 06:37:36;;;;;;;22.87;21.53;;;27.40;99.90;;;;;;5011877;28;20966;-71
2022/07/24 06:40:04;;;;;;;24.07;22.67;;;27.50;99.80;;;;;;5011727;28;20458;-71
2022/07/24 06:42:32;;;;;;;22.80;21.40;;;27.70;99.30;;;;;;5011963;28;20477;-71
2022/07/24 06:44:59;;;;;;;23.93;22.63;;;27.50;99.40;;;;;;5011508;28;20458;-71
2022/07/24 06:47:26;;;;;;;23.40;22.10;;;27.40;99.50;;;;;;5011449;28;20446;-70
2022/07/24 06:49:53;;;;;;;24.43;22.83;;;27.30;99.90;;;;;;5011793;28;20585;-70
2022/07/24 06:52:20;;;;;;;23.93;22.53;;;27.30;99.70;;;;;;5011590;28;20497;-71
2022/07/24 06:54:47;;;;;;;24.00;22.60;;;27.50;99.40;;;;;;5011588;28;20940;-70
2022/07/24 06:57:14;;;;;;;22.83;21.30;;;27.70;98.80;;;;;;5004148;28;20473;-68
2022/07/24 06:59:42;;;;;;;24.57;23.17;;;27.80;99.00;;;;;;5011402;28;20527;-68
2022/07/24 07:02:09;;;;;;;21.33;20.13;;;27.80;98.40;;;;;;5011016;28;20442;-69
2022/07/24 07:04:36;;;;;;;21.93;20.63;;;28.00;97.90;;;;;;5011098;28;20450;-69
2022/07/24 07:07:03;;;;;;;23.17;21.87;;;28.20;97.40;;;;;;5010997;28;20462;-69
2022/07/24 07:09:29;;;;;;;23.60;22.10;;;28.60;96.80;;;;;;5010602;28;20464;-69
2022/07/24 07:11:56;;;;;;;24.47;22.90;;;28.90;96.10;;;;;;5010517;28;20489;-67
2022/07/24 07:14:23;;;;;;;23.00;21.60;;;29.60;94.50;;;;;;5010884;28;20454;-68
2022/07/24 07:16:51;;;;;;;23.60;22.20;;;30.00;93.80;;;;;;5010978;28;20524;-68
2022/07/24 07:19:18;;;;;;;22.10;20.80;;;30.20;92.80;;;;;;5010562;28;20457;-68
2022/07/24 07:21:44;;;;;;;22.57;20.80;;;30.40;92.40;;;;;;5010624;28;20446;-68
2022/07/24 07:24:11;;;;;;;21.43;20.13;;;30.50;91.90;;;;;;5010665;28;20454;-68
2022/07/24 07:26:38;;;;;;;21.60;20.27;;;30.30;91.90;;;;;;5010671;28;20540;-69
2022/07/24 07:29:05;;;;;;;21.77;20.50;;;30.40;91.10;;;;;;5010533;28;20462;-69
2022/07/24 07:31:31;;;;;;;22.77;21.57;;;30.80;90.40;;;;;;5010366;28;20979;-69
2022/07/24 07:33:59;;;;;;;22.10;20.90;;;30.90;90.20;;;;;;5009669;28;20481;-69
2022/07/24 07:36:26;;;;;;;22.90;21.63;;;31.50;88.40;;;;;;5010601;28;20457;-71
2022/07/24 07:38:54;;;;;;;21.03;19.97;;;31.70;85.60;;;;;;5010270;28;20465;-71
2022/07/24 07:41:20;;;;;;;21.13;19.90;;;31.10;84.40;;;;;;5010642;28;20454;-71
2022/07/24 07:43:47;;;;;;;20.83;19.53;;;31.30;85.60;;;;;;5010412;28;20458;-70
2022/07/24 07:46:14;;;;;;;21.70;20.50;;;31.60;84.10;;;;;;5010358;28;20504;-71
2022/07/24 07:48:41;;;;;;;21.50;20.40;;;32.40;81.80;;;;;;5010270;28;20450;-69
2022/07/24 07:51:09;;;;;;;20.60;19.50;;;32.80;80.70;;;;;;5010374;28;20457;-71
2022/07/24 07:53:36;;;;;;;20.17;19.13;;;33.40;76.10;;;;;;5010258;28;20485;-71
2022/07/24 07:56:04;;;;;;;20.97;19.80;;;33.80;74.10;;;;;;5010620;28;20465;-70
2022/07/24 07:58:31;;;;;;;20.50;19.40;;;34.10;73.40;;;;;;5010402;28;20450;-70
2022/07/24 08:00:58;;;;;;;20.17;18.97;;;34.00;68.70;;;;;;5010262;28;20450;-71
2022/07/24 08:03:25;;;;;;;19.40;18.40;;;33.80;68.70;;;;;;5010173;28;21154;-70
2022/07/24 08:05:51;;;;;;;20.63;19.50;;;33.90;70.30;;;;;;5010680;28;20453;-71
2022/07/24 08:08:19;;;;;;;20.00;19.00;;;33.50;66.60;;;;;;5010659;28;20458;-71
2022/07/24 08:10:46;;;;;;;20.10;19.03;;;33.00;69.10;;;;;;5010508;28;20457;-70
2022/07/24 08:13:14;;;;;;;20.00;19.00;;;33.10;69.00;;;;;;5010031;28;20777;-70
2022/07/24 08:15:41;;;;;;;20.93;19.73;;;33.10;69.70;;;;;;5010361;28;20540;-71
2022/07/24 08:18:08;;;;;;;19.13;18.13;;;32.70;70.80;;;;;;5010389;28;20461;-71
2022/07/24 08:20:35;;;;;;;18.63;17.63;;;32.70;70.00;;;;;;5010508;28;20449;-71
2022/07/24 08:23:01;;;;;;;19.47;18.47;;;33.50;67.60;;;;;;5010244;28;20449;-71
2022/07/24 08:25:29;;;;;;;18.40;17.50;;;34.00;65.60;;;;;;5010398;28;20442;-71
2022/07/24 08:27:56;;;;;;;19.73;18.37;;;34.70;63.70;;;;;;5010186;28;20454;-71
2022/07/24 08:30:25;;;;;;;19.93;18.83;;;35.20;62.30;;;;;;5009655;28;20454;-71
2022/07/24 08:32:51;;;;;;;18.83;17.83;;;35.30;61.50;;;;;;5009895;28;20504;-71
2022/07/24 08:35:18;;;;;;;20.30;19.23;;;36.10;60.30;;;;;;5010036;28;20465;-72
2022/07/24 08:37:45;;;;;;;19.40;18.40;;;36.00;59.10;;;;;;5009967;28;20449;-71
2022/07/24 08:40:13;;;;;;;19.50;18.50;;;35.50;58.50;;;;;;5009745;28;20873;-71
2022/07/24 08:42:41;;;;;;;19.13;18.20;;;34.80;58.80;;;;;;5009857;28;20454;-71
2022/07/24 08:45:09;;;;;;;20.03;18.93;;;34.80;59.60;;;;;;5010377;28;20453;-71
2022/07/24 08:47:38;;;;;;;19.90;18.90;;;34.40;60.20;;;;;;5013734;28;20461;-71
2022/07/24 08:50:06;;;;;;;18.87;17.87;;;35.20;57.90;;;;;;5013670;28;20454;-71
2022/07/24 08:52:35;;;;;;;19.87;18.67;;;36.10;56.70;;;;;;5013454;28;20479;-71
2022/07/24 08:55:02;;;;;;;19.20;18.20;;;35.80;54.60;;;;;;5013478;28;20548;-71
2022/07/24 08:57:29;;;;;;;19.33;18.13;;;35.80;53.80;;;;;;5013381;28;20457;-71
2022/07/24 08:59:58;;;;;;;18.53;17.57;;;35.90;54.10;;;;;;5013274;28;20461;-71
2022/07/24 09:02:24;;;;;;;19.40;18.40;;;36.20;54.80;;;;;;5013196;28;20454;-71
2022/07/24 09:04:58;;;;;;;19.20;18.17;;;36.80;53.60;;;;;;5013915;28;20893;-71
2022/07/24 09:07:29;;;;;;;19.60;18.60;;;37.40;52.50;;;;;;5013285;28;20457;-71
2022/07/24 09:09:59;;;;;;;19.30;18.40;;;37.30;52.40;;;;;;5013085;28;20461;-71
2022/07/24 09:12:26;;;;;;;19.27;18.27;;;36.90;53.00;;;;;;5013185;28;20874;-71
2022/07/24 09:14:53;;;;;;;19.20;18.20;;;36.50;53.70;;;;;;5013201;28;20454;-71
2022/07/24 09:17:22;;;;;;;19.97;19.00;;;37.00;52.80;;;;;;5013138;28;20975;-71
2022/07/24 09:19:50;;;;;;;20.00;19.00;;;36.70;52.80;;;;;;5013696;28;20465;-71
2022/07/24 09:22:26;;;;;;;20.13;19.13;;;36.50;53.40;;;;;;5012685;28;20446;-71
2022/07/24 09:25:09;;;;;;;20.70;19.70;;;36.10;54.20;;;;;;5012952;28;20792;-71
2022/07/24 09:27:40;;;;;;;19.50;18.60;;;36.80;53.00;;;;;;5013164;28;20854;-71
2022/07/24 09:30:08;;;;;;;20.20;19.30;;;37.50;51.70;;;;;;5013107;28;20496;-72
2022/07/24 09:32:37;;;;;;;19.40;18.60;;;38.30;51.00;;;;;;5012812;28;20505;-71
2022/07/24 09:35:04;;;;;;;20.70;19.70;;;38.70;49.60;;;;;;5012813;28;20456;-71
2022/07/24 09:37:32;;;;;;;21.13;20.13;;;38.20;49.30;;;;;;5012763;28;20460;-71
2022/07/24 09:40:08;;;;;;;20.60;19.60;;;38.70;49.40;;;;;;5012583;28;20551;-71
2022/07/24 09:42:38;;;;;;;20.37;19.33;;;39.30;48.10;;;;;;5012871;28;20883;-71
2022/07/24 09:45:10;;;;;;;20.17;19.20;;;40.00;46.50;;;;;;5012757;28;20457;-71
2022/07/24 09:47:39;;;;;;;19.97;19.07;;;40.00;45.30;;;;;;5012423;28;20544;-72
2022/07/24 09:50:13;;;;;;;21.43;20.33;;;39.50;45.70;;;;;;5012705;28;20488;-72
2022/07/24 09:52:43;;;;;;;21.40;20.13;;;39.00;46.40;;;;;;5012456;28;20524;-72
2022/07/24 09:55:21;;;;;;;19.63;18.80;;;38.70;46.40;;;;;;5012490;28;20518;-72
2022/07/24 09:57:49;;;;;;;21.90;20.87;;;38.80;45.80;;;;;;5011565;28;20846;-72
2022/07/24 10:00:16;;;;;;;20.10;19.17;;;39.40;44.40;;;;;;5012262;28;20453;-72
2022/07/24 10:02:47;;;;;;;19.60;18.70;;;40.30;43.50;;;;;;5012161;28;20449;-72
2022/07/24 10:05:15;;;;;;;21.03;20.03;;;40.80;42.20;;;;;;5012369;28;20779;-72
2022/07/24 10:07:43;;;;;;;20.60;19.60;;;40.70;42.50;;;;;;5011766;28;20489;-70
2022/07/24 10:10:11;;;;;;;20.30;19.30;;;39.80;43.60;;;;;;5012018;28;20994;-70
2022/07/24 10:12:39;;;;;;;21.03;20.10;;;38.80;44.40;;;;;;5012233;28;20480;-71
2022/07/24 10:15:08;;;;;;;20.70;19.80;;;38.20;45.10;;;;;;5012098;28;20454;-71
2022/07/24 10:18:00;;;;;;;20.50;19.60;;;38.50;45.10;;;;;;5012066;28;20461;-71
2022/07/24 10:20:38;;;;;;;21.10;20.00;;;39.60;43.60;;;;;;5012167;28;20457;-72
2022/07/24 10:23:07;;;;;;;21.10;20.20;;;40.50;42.70;;;;;;5012192;28;20849;-72
2022/07/24 10:25:50;;;;;;;20.07;19.17;;;41.50;41.40;;;;;;5012031;28;20461;-72
2022/07/24 10:28:36;;;;;;;21.60;20.50;;;40.30;41.60;;;;;;5011884;28;20454;-71
2022/07/24 10:31:06;;;;;;;20.03;19.13;;;39.00;42.90;;;;;;5011685;28;20531;-71
2022/07/24 10:33:35;;;;;;;20.47;19.53;;;38.70;43.90;;;;;;5011508;28;20489;-72
2022/07/24 10:36:04;;;;;;;19.60;18.70;;;37.30;45.50;;;;;;5011818;28;20441;-73
2022/07/24 10:38:37;;;;;;;20.83;19.80;;;37.10;46.50;;;;;;5011662;28;20458;-70
2022/07/24 10:41:09;;;;;;;20.10;19.13;;;36.30;47.60;;;;;;5011692;28;20947;-71
2022/07/24 10:43:37;;;;;;;19.80;18.90;;;35.60;48.60;;;;;;5011741;28;20446;-72
2022/07/24 10:46:15;;;;;;;20.40;19.30;;;35.30;49.20;;;;;;5011516;28;20466;-71
2022/07/24 10:48:43;;;;;;;20.47;19.27;;;35.20;50.40;;;;;;5011378;28;20500;-71
2022/07/24 10:51:13;;;;;;;19.13;18.23;;;35.10;50.10;;;;;;5011318;28;20456;-71
2022/07/24 10:53:50;;;;;;;22.17;20.90;;;35.40;50.00;;;;;;5011200;28;20486;-71
2022/07/24 10:56:23;;;;;;;21.10;20.20;;;34.80;51.00;;;;;;5011374;28;20556;-71
2022/07/24 10:59:03;;;;;;;20.60;18.73;;;34.30;52.30;;;;;;5011311;28;20983;-72
2022/07/24 11:01:36;;;;;;;20.53;19.50;;;33.80;53.40;;;;;;5011312;28;20450;-72
2022/07/24 11:04:25;;;;;;;20.87;19.47;;;34.60;52.50;;;;;;5011452;28;20462;-71
2022/07/24 11:06:54;;;;;;;21.83;20.73;;;35.80;50.90;;;;;;5011224;28;20457;-72
2022/07/24 11:09:22;;;;;;;20.90;19.90;;;36.20;50.00;;;;;;5010234;28;20944;-72
2022/07/24 11:12:06;;;;;;;24.17;22.97;;;36.70;49.00;;;;;;5011250;28;20450;-72
2022/07/24 11:14:51;;;;;;;21.30;20.30;;;36.90;48.50;;;;;;5011088;28;20481;-72
2022/07/24 11:17:37;;;;;;;19.27;18.37;;;37.10;48.50;;;;;;5011227;28;20473;-72
2022/07/24 11:20:07;;;;;;;20.53;19.63;;;37.40;48.20;;;;;;5011316;28;20457;-72
2022/07/24 11:22:47;;;;;;;20.97;19.87;;;37.30;48.10;;;;;;5011018;28;20500;-72
2022/07/24 11:25:17;;;;;;;20.90;19.90;;;37.70;47.00;;;;;;5011323;28;20458;-72
2022/07/24 11:27:49;;;;;;;21.20;19.97;;;37.80;46.50;;;;;;5010953;28;20463;-71
2022/07/24 11:30:17;;;;;;;22.70;21.47;;;38.10;46.50;;;;;;5010899;28;20458;-72
2022/07/24 11:32:44;;;;;;;20.77;19.87;;;38.60;45.00;;;;;;5010698;28;20489;-72
2022/07/24 11:35:12;;;;;;;21.80;20.53;;;38.80;45.20;;;;;;5010503;28;20454;-73
2022/07/24 11:37:41;;;;;;;20.53;19.53;;;38.90;44.20;;;;;;5010785;28;20454;-72
2022/07/24 11:40:09;;;;;;;21.40;20.47;;;39.00;44.50;;;;;;5010951;28;21126;-72
2022/07/24 11:42:36;;;;;;;20.73;19.63;;;38.80;43.80;;;;;;5011200;28;20479;-72
2022/07/24 11:45:05;;;;;;;22.70;21.60;;;39.00;43.50;;;;;;5010709;28;20465;-72
2022/07/24 11:47:32;;;;;;;21.53;20.60;;;38.80;44.20;;;;;;5010567;28;20828;-72
2022/07/24 11:50:00;;;;;;;20.13;19.23;;;39.20;43.30;;;;;;5010644;28;20446;-72
2022/07/24 11:52:31;;;;;;;21.90;20.90;;;39.80;42.50;;;;;;5010503;28;20454;-72
2022/07/24 11:55:01;;;;;;;20.57;19.57;;;40.20;42.50;;;;;;5010739;28;20512;-72
2022/07/24 11:57:31;;;;;;;20.50;19.60;;;40.20;41.80;;;;;;5010809;28;20480;-72
2022/07/24 11:59:58;;;;;;;20.80;19.90;;;38.90;43.10;;;;;;5010503;28;20454;-72
2022/07/24 12:02:25;;;;;;;21.03;20.13;;;38.70;43.20;;;;;;5010488;28;20454;-71
2022/07/24 12:04:53;;;;;;;22.13;21.13;;;;;;;;;;5010489;28;20529;-72
2022/07/24 12:07:22;;;;;;;21.60;20.53;;;39.60;42.10;;;;;;5010680;28;20457;-72
2022/07/24 12:09:53;;;;;;;22.47;21.50;;;40.20;41.80;;;;;;5010743;28;20458;-72
2022/07/24 12:12:25;;;;;;;21.80;20.90;;;40.30;41.00;;;;;;5010543;28;20963;-71
2022/07/24 12:14:54;;;;;;;21.83;20.93;;;40.80;40.30;;;;;;5010119;28;20849;-72
2022/07/24 12:17:21;;;;;;;21.57;20.57;;;40.60;40.70;;;;;;5010394;28;20453;-73
2022/07/24 12:19:55;;;;;;;20.27;19.47;;;40.80;40.70;;;;;;5010614;28;20847;-73
2022/07/24 12:22:24;;;;;;;21.40;20.40;;;40.60;40.40;;;;;;5014223;28;20452;-73
2022/07/24 12:24:54;;;;;;;20.43;19.53;;;39.90;40.50;;;;;;5014315;28;20446;-72
2022/07/24 12:27:35;;;;;;;22.20;21.10;;;39.10;42.10;;;;;;5014002;28;20457;-73
2022/07/24 12:30:01;;;;;;;20.60;19.70;;;39.70;41.80;;;;;;5013796;28;20963;-73
2022/07/24 12:32:29;;;;;;;21.23;20.23;;;40.20;40.80;;;;;;5013903;28;20485;-72
2022/07/24 12:34:56;;;;;;;21.50;20.43;;;40.60;40.00;;;;;;5014029;28;20588;-73
2022/07/24 12:37:23;;;;;;;21.17;20.27;;;40.40;39.80;;;;;;5014162;28;20469;-73
2022/07/24 12:39:53;;;;;;;21.87;20.67;;;40.40;39.80;;;;;;5013926;28;20863;-73
2022/07/24 12:42:30;;;;;;;20.70;19.70;;;39.90;40.50;;;;;;5014094;28;20544;-73
2022/07/24 12:45:07;;;;;;;20.73;19.83;;;39.80;40.80;;;;;;5014184;28;20848;-71
2022/07/24 12:47:33;;;;;;;22.33;21.30;;;40.90;39.90;;;;;;5013912;28;20460;-71
2022/07/24 12:50:13;;;;;;;22.27;21.27;;;41.20;39.30;;;;;;5013801;28;20882;-71
2022/07/24 12:52:39;;;;;;;21.67;20.67;;;39.30;41.40;;;;;;5013789;28;20493;-71
2022/07/24 12:55:20;;;;;;;21.50;20.50;;;38.80;42.20;;;;;;5013729;28;20493;-71
2022/07/24 12:57:46;;;;;;;20.17;19.17;;;37.50;43.00;;;;;;5013564;28;20453;-71
2022/07/24 13:00:14;;;;;;;20.20;19.30;;;37.20;43.70;;;;;;5013492;28;20452;-71
2022/07/24 13:02:41;;;;;;;21.13;20.03;;;37.70;42.90;;;;;;5013534;28;20935;-71
2022/07/24 13:05:08;;;;;;;21.63;20.53;;;38.30;42.40;;;;;;5013467;28;20489;-71
2022/07/24 13:07:35;;;;;;;20.77;19.80;;;39.10;41.60;;;;;;5013767;28;20489;-71
2022/07/24 13:10:03;;;;;;;20.90;19.90;;;39.60;41.20;;;;;;5013475;28;20465;-71
2022/07/24 13:12:31;;;;;;;20.47;19.50;;;40.50;39.50;;;;;;5013490;28;20449;-71
2022/07/24 13:14:58;;;;;;;23.00;21.90;;;41.00;38.50;;;;;;5013468;28;20497;-71
2022/07/24 13:17:26;;;;;;;22.03;21.07;;;40.70;38.80;;;;;;5013283;28;20454;-71
2022/07/24 13:19:53;;;;;;;21.87;20.87;;;40.10;39.20;;;;;;5013595;28;20446;-71
2022/07/24 13:22:21;;;;;;;21.50;20.57;;;39.70;40.10;;;;;;5013443;28;20565;-71
2022/07/24 13:24:47;;;;;;;21.00;20.10;;;40.00;39.70;;;;;;5013215;28;20458;-71
2022/07/24 13:27:16;;;;;;;20.97;19.97;;;40.30;39.20;;;;;;5013177;28;20450;-71
2022/07/24 13:29:45;;;;;;;20.40;19.50;;;40.40;39.20;;;;;;5013082;28;20581;-71
2022/07/24 13:32:12;;;;;;;19.80;18.90;;;40.30;39.10;;;;;;5011899;28;20628;-72
2022/07/24 13:34:39;;;;;;;21.30;20.40;;;40.40;38.40;;;;;;5013326;28;20473;-72
2022/07/24 13:37:06;;;;;;;20.50;19.60;;;39.70;38.80;;;;;;5013015;28;20453;-72
2022/07/24 13:39:33;;;;;;;19.80;18.93;;;39.30;39.50;;;;;;5013108;28;20458;-71
2022/07/24 13:41:59;;;;;;;20.23;19.23;;;39.30;39.20;;;;;;5012723;28;20485;-71
2022/07/24 13:44:26;;;;;;;20.13;19.30;;;38.60;39.30;;;;;;5012995;28;20449;-71
2022/07/24 13:46:55;;;;;;;20.43;19.33;;;37.90;40.70;;;;;;5012623;28;20461;-71
2022/07/24 13:49:21;;;;;;;21.33;20.20;;;38.40;40.40;;;;;;5012937;28;20453;-71
2022/07/24 13:51:48;;;;;;;21.73;20.50;;;39.00;39.40;;;;;;5012668;28;20456;-71
2022/07/24 13:54:15;;;;;;;20.47;19.60;;;39.60;38.50;;;;;;5012777;28;20540;-71
2022/07/24 13:56:41;;;;;;;22.43;21.23;;;39.60;38.20;;;;;;5012661;28;20455;-72
2022/07/24 13:59:08;;;;;;;20.50;19.60;;;39.40;38.10;;;;;;5012756;28;20454;-70
2022/07/24 14:01:35;;;;;;;19.43;18.63;;;39.20;39.00;;;;;;5012393;28;20457;-71
2022/07/24 14:04:03;;;;;;;21.37;20.27;;;40.00;38.70;;;;;;5012243;28;20450;-71
2022/07/24 14:06:32;;;;;;;21.77;20.77;;;40.20;37.70;;;;;;5012150;28;20458;-71
2022/07/24 14:08:58;;;;;;;21.00;20.10;;;39.80;37.70;;;;;;5012339;28;20860;-70
2022/07/24 14:11:25;;;;;;;20.97;20.07;;;39.60;37.80;;;;;;5012294;28;20453;-71
2022/07/24 14:13:52;;;;;;;21.70;20.73;;;39.30;38.20;;;;;;5012322;28;20536;-71
2022/07/24 14:16:18;;;;;;;21.07;20.07;;;38.80;38.70;;;;;;5012172;28;20804;-71
2022/07/24 14:18:45;;;;;;;21.53;20.43;;;38.70;39.30;;;;;;5011993;28;20461;-71
2022/07/24 14:21:13;;;;;;;21.27;20.27;;;38.60;39.10;;;;;;5012052;28;21015;-72
2022/07/24 14:23:40;;;;;;;20.50;19.50;;;38.40;39.50;;;;;;5012082;28;20450;-71
2022/07/24 14:26:07;;;;;;;21.87;20.77;;;37.90;40.00;;;;;;5012009;28;20869;-71
2022/07/24 14:28:34;;;;;;;22.00;21.00;;;37.60;40.40;;;;;;5011647;28;20461;-71
2022/07/24 14:31:00;;;;;;;20.73;19.63;;;38.10;40.20;;;;;;5011509;28;20480;-72
2022/07/24 14:33:27;;;;;;;20.03;19.03;;;38.00;40.50;;;;;;5011435;28;20489;-71
2022/07/24 14:35:54;;;;;;;19.97;18.97;;;37.30;40.90;;;;;;5011740;28;20496;-71
2022/07/24 14:38:22;;;;;;;20.60;19.60;;;36.90;41.90;;;;;;5011794;28;20480;-71
2022/07/24 14:40:48;;;;;;;20.63;19.63;;;36.40;42.10;;;;;;5011417;28;20454;-71
2022/07/24 14:43:15;;;;;;;20.70;19.73;;;35.60;43.40;;;;;;5011047;28;20453;-71
2022/07/24 14:45:42;;;;;;;20.33;19.30;;;35.10;43.70;;;;;;5010977;28;20534;-71
2022/07/24 14:48:09;;;;;;;21.30;20.20;;;35.20;44.10;;;;;;5011173;28;21126;-71
2022/07/24 14:50:35;;;;;;;21.13;20.13;;;35.60;43.20;;;;;;5011569;28;20512;-71
2022/07/24 14:53:02;;;;;;;20.50;19.50;;;;;;;;;;5011111;28;20819;-71
2022/07/24 14:55:30;;;;;;;21.00;19.90;;;35.00;43.90;;;;;;5010952;28;20485;-71
2022/07/24 14:57:57;;;;;;;20.23;19.23;;;34.40;44.20;;;;;;5011122;28;20458;-71
2022/07/24 15:00:24;;;;;;;20.57;19.67;;;33.90;45.20;;;;;;5011015;28;20450;-70
2022/07/24 15:02:51;;;;;;;20.87;19.87;;;34.00;45.50;;;;;;5011637;28;20464;-71
2022/07/24 15:05:17;;;;;;;20.90;20.00;;;34.40;45.20;;;;;;5011487;28;20462;-70
2022/07/24 15:07:44;;;;;;;20.80;19.80;;;34.20;44.90;;;;;;5011021;28;20461;-71
2022/07/24 15:10:11;;;;;;;19.90;18.90;;;34.10;45.10;;;;;;5011009;28;20943;-71
2022/07/24 15:12:39;;;;;;;20.50;19.37;;;33.80;45.60;;;;;;5011151;28;20458;-71
2022/07/24 15:15:07;;;;;;;20.20;19.30;;;33.40;46.10;;;;;;5010945;28;20489;-71
2022/07/24 15:17:33;;;;;;;19.30;18.30;;;33.10;46.60;;;;;;5010906;28;20855;-72
2022/07/24 15:20:00;;;;;;;19.13;18.30;;;32.70;46.80;;;;;;5010686;28;20461;-71
2022/07/24 15:22:27;;;;;;;18.40;17.50;;;32.70;47.60;;;;;;5010806;28;20461;-71
2022/07/24 15:24:53;;;;;;;19.53;18.30;;;32.60;47.00;;;;;;5010819;28;20787;-70
2022/07/24 15:27:20;;;;;;;21.43;20.33;;;32.50;47.50;;;;;;5011025;28;20464;-71
2022/07/24 15:29:49;;;;;;;18.87;18.03;;;32.30;47.40;;;;;;5010325;28;20450;-71
2022/07/24 15:32:16;;;;;;;18.37;17.37;;;32.40;47.10;;;;;;5010162;28;20976;-71
2022/07/24 15:34:42;;;;;;;20.07;18.87;;;32.50;47.30;;;;;;5010509;28;20612;-71
2022/07/24 15:37:09;;;;;;;20.23;19.33;;;32.50;47.30;;;;;;5010537;28;20457;-72
2022/07/24 15:39:36;;;;;;;19.00;18.03;;;32.50;46.90;;;;;;5010666;28;20450;-70
2022/07/24 15:42:02;;;;;;;20.23;19.23;;;32.30;47.20;;;;;;5010243;28;20457;-71
2022/07/24 15:44:29;;;;;;;21.50;20.47;;;32.40;47.00;;;;;;5010156;28;20457;-70
2022/07/24 15:46:57;;;;;;;20.33;19.43;;;32.40;46.80;;;;;;5010411;28;20449;-71
2022/07/24 15:49:24;;;;;;;18.43;17.53;;;32.50;47.00;;;;;;5010424;28;20465;-70
2022/07/24 15:51:51;;;;;;;18.80;17.90;;;32.50;46.60;;;;;;5010616;28;20457;-71
2022/07/24 15:54:17;;;;;;;19.50;18.60;;;32.60;46.70;;;;;;5010026;28;20844;-72
2022/07/24 15:56:44;;;;;;;19.87;18.90;;;32.60;46.70;;;;;;5009805;28;20494;-71
2022/07/24 15:59:11;;;;;;;20.93;19.90;;;32.50;47.70;;;;;;5010389;28;20457;-71
2022/07/24 16:01:38;;;;;;;19.30;18.33;;;32.30;47.80;;;;;;5010301;28;20458;-71
2022/07/24 16:04:06;;;;;;;22.23;21.23;;;32.20;47.90;;;;;;5010273;28;20449;-70
2022/07/24 16:06:33;;;;;;;21.10;20.10;;;32.20;48.20;;;;;;5010144;28;20971;-70
2022/07/24 16:09:00;;;;;;;18.73;17.73;;;32.10;48.10;;;;;;5010138;28;20450;-71
2022/07/24 16:11:26;;;;;;;19.60;18.67;;;32.10;48.60;;;;;;5009921;28;20450;-71
2022/07/24 16:13:53;;;;;;;20.23;19.23;;;32.00;48.70;;;;;;5010311;28;20457;-71
2022/07/24 16:16:20;;;;;;;18.93;18.03;;;;;;;;;;5010345;28;20489;-71
2022/07/24 16:18:47;;;;;;;21.97;20.77;;;31.90;48.40;;;;;;5010133;28;20450;-72
2022/07/24 16:21:15;;;;;;;21.23;20.10;;;31.90;49.10;;;;;;5010149;28;20969;-72
2022/07/24 16:23:42;;;;;;;20.53;19.60;;;31.90;48.80;;;;;;5010056;28;20442;-72
2022/07/24 16:26:08;;;;;;;21.23;20.23;;;31.90;48.20;;;;;;5010040;28;20457;-71
2022/07/24 16:28:35;;;;;;;17.87;16.97;;;31.90;48.40;;;;;;5009957;28;20454;-71
2022/07/24 16:31:02;;;;;;;19.07;18.07;;;31.90;48.70;;;;;;5009930;28;20816;-72
2022/07/24 16:33:29;;;;;;;20.77;19.77;;;31.90;48.90;;;;;;5009790;28;21204;-71
2022/07/24 16:35:56;;;;;;;21.73;20.53;;;31.80;48.90;;;;;;5009889;28;20536;-71
2022/07/24 16:38:24;;;;;;;20.63;19.47;;;31.80;49.30;;;;;;5010070;28;20870;-71
2022/07/24 16:40:51;;;;;;;19.80;18.90;;;31.80;49.60;;;;;;5010292;28;20461;-71
2022/07/24 16:43:18;;;;;;;19.67;18.77;;;;;;;;;;5010289;28;20454;-71
2022/07/24 16:45:45;;;;;;;20.03;19.13;;;31.90;49.00;;;;;;5009827;28;20958;-73
2022/07/24 16:48:12;;;;;;;19.07;18.07;;;31.90;50.00;;;;;;5009934;28;20604;-71
2022/07/24 16:50:38;;;;;;;19.57;18.47;;;31.90;50.00;;;;;;5009774;28;20453;-71
2022/07/24 16:53:06;;;;;;;19.17;18.00;;;31.90;50.10;;;;;;5009994;28;20458;-72
2022/07/24 16:55:34;;;;;;;19.10;18.17;;;31.90;50.80;;;;;;5009588;28;20535;-70
2022/07/24 16:58:02;;;;;;;21.33;20.23;;;31.80;51.50;;;;;;5009574;28;20458;-73
2022/07/24 17:00:29;;;;;;;19.90;19.00;;;31.70;52.20;;;;;;5010006;28;20504;-72
2022/07/24 17:02:55;;;;;;;20.23;19.23;;;31.70;52.50;;;;;;5010250;28;20458;-72
2022/07/24 17:05:22;;;;;;;20.40;19.37;;;31.60;52.60;;;;;;5009855;28;20966;-71
2022/07/24 17:07:49;;;;;;;19.60;18.60;;;31.70;53.10;;;;;;5012964;28;20833;-72
2022/07/24 17:10:16;;;;;;;19.87;18.87;;;31.60;53.10;;;;;;5013663;28;20492;-72
2022/07/24 17:12:44;;;;;;;20.33;19.30;;;31.60;53.80;;;;;;5013376;28;20974;-72
2022/07/24 17:15:11;;;;;;;20.60;19.53;;;31.50;54.20;;;;;;5013534;28;20485;-72
2022/07/24 17:20:22;;;;;;;19.63;18.63;;;31.40;54.20;;;;;;5013678;28;20432;-72
2022/07/24 17:22:49;;;;;;;21.10;19.80;;;31.30;54.30;;;;;;5013446;28;20518;-72
2022/07/24 17:25:15;;;;;;;20.00;19.00;;;31.30;54.90;;;;;;5013341;28;20450;-73
2022/07/24 17:27:43;;;;;;;20.87;19.67;;;31.30;54.80;;;;;;5013060;28;20465;-72
2022/07/24 17:30:12;;;;;;;20.97;19.77;;;31.30;55.00;;;;;;5012838;28;20446;-72
2022/07/24 17:32:38;;;;;;;20.30;19.30;;;31.30;55.10;;;;;;5012859;28;20477;-72
2022/07/24 17:35:06;;;;;;;20.60;19.33;;;31.20;55.70;;;;;;5013138;28;21002;-73
2022/07/24 17:37:33;;;;;;;20.40;19.40;;;31.10;55.20;;;;;;5013188;28;20567;-71
2022/07/24 17:39:59;;;;;;;19.67;18.67;;;31.20;55.70;;;;;;5012739;28;20461;-71
2022/07/24 17:42:26;;;;;;;21.40;20.30;;;31.10;55.40;;;;;;5011741;28;20453;-72
2022/07/24 17:44:54;;;;;;;20.63;19.47;;;31.10;55.90;;;;;;5008260;28;20496;-72
2022/07/24 17:47:21;;;;;;;20.57;19.43;;;31.10;56.10;;;;;;5013014;28;20457;-72
2022/07/24 17:49:47;;;;;;;20.43;19.33;;;31.10;56.30;;;;;;5012922;28;20460;-72
2022/07/24 17:52:14;;;;;;;19.70;18.80;;;31.10;56.20;;;;;;5012476;28;20450;-72
2022/07/24 17:54:41;;;;;;;20.90;19.60;;;31.00;56.40;;;;;;5012641;28;20459;-73
2022/07/24 17:57:08;;;;;;;19.67;18.67;;;31.00;56.80;;;;;;5012763;28;20457;-72
2022/07/24 17:59:34;;;;;;;21.30;20.20;;;31.00;56.70;;;;;;5012897;28;20461;-73
2022/07/24 18:02:02;;;;;;;19.37;18.27;;;30.90;57.30;;;;;;5012518;28;20450;-72
2022/07/24 18:04:29;;;;;;;21.20;19.80;;;31.00;57.10;;;;;;5012527;28;20457;-71
2022/07/24 18:06:56;;;;;;;19.90;18.80;;;31.00;57.20;;;;;;5012468;28;20446;-72
2022/07/24 18:09:23;;;;;;;18.70;17.80;;;30.90;57.50;;;;;;5011975;28;20449;-72